Angelo Coast Range Reserve, California Weather observations

Data are for 10 minute period ending at time listed.
 Day   Time   Solar   Ave.   Ave.  Ave.  Vector  Max.   Baro.   Total    
  of    of     Rad.   Air    Rel.  Wind   Wind   Wind  Press.  Precip.   
Year   Day            Temp.  Hum.  Speed  Dir.   Gust                    
2016   (PST)  Kw/m2    F      %     mph   deg.    mph    mb.     in.     
-------------------------------------------------------------------------
 270    9:10   0.49   62.2    46    0.0     0     0.0   967.6    0.00 
 270    9:20   0.52   66.6    40    0.0   143     0.4   967.4    0.00 
 270    9:30   0.55   69.5    38    0.0     0     0.0   967.3    0.00 
 270    9:40   0.57   72.4    34    0.1   160     1.3   967.2    0.00 
 270    9:50   0.59   74.5    32    0.6   162     1.5   967.4    0.00 
 270   10:00   0.61   77.6    30    0.1   101     0.9   967.6    0.00 
 270   10:10   0.63   79.1    29    0.0     0     0.0   967.6    0.00 
 270   10:20   0.65   81.0    28    0.3   136     1.1   967.7    0.00 
 270   10:30   0.67   83.6    26    0.2   115     1.3   967.6    0.00 
 270   10:40   0.68   85.4    24    0.1   101     1.0   967.5    0.00 
 270   10:50   0.69   87.5    23    0.2    99     1.2   967.4    0.00 
 270   11:00   0.71   88.2    22    0.3   150     1.5   967.3    0.00 
 270   11:10   0.72   89.6    21    1.4   100     3.7   967.1    0.00 
 270   11:20   0.73   91.2    21    1.3   117     6.1   967.0    0.00 
 270   11:30   0.73   92.9    17    3.6   134    10.2   966.9    0.00 
 270   11:40   0.74   94.2    15    4.0   139    12.7   966.8    0.00 
 270   11:50   0.75   94.4    13    5.8   147    12.0   966.7    0.00 
 270   12:00   0.75   94.6    12    6.3   155    15.1   966.7    0.00 
 270   12:10   0.75   95.0    12    5.8   149    12.8   966.5    0.00 
 270   12:20   0.74   94.4    13    5.7   152    12.3   966.5    0.00 
 270   12:30   0.73   94.9    14    3.8   144    12.9   966.6    0.00 
 270   12:40   0.73   94.7    15    3.2   143    11.0   966.7    0.00 
 270   12:50   0.73   93.6    16    2.8   128     6.9   966.7    0.00 
 270   13:00   0.72   94.1    16    2.5   153    12.6   966.6    0.00 
 270   13:10   0.71   92.1    15    5.7   139    13.7   966.4    0.00 
 270   13:20   0.70   92.7    15    4.5   122    11.5   966.4    0.00 
 270   13:30   0.65   92.4    15    3.6   125    10.2   966.4    0.00 
 270   13:40   0.67   93.6    15    1.2   330     3.6   966.3    0.00 
 270   13:50   0.66   93.4    14    2.3   145     8.6   966.3    0.00 
 270   14:00   0.64   92.1    14    5.3   144    12.5   966.3    0.00 
 270   14:10   0.62   90.4    14    6.9   151    12.7   966.3    0.00 
 270   14:20   0.59   89.2    15    6.9   147    12.3   966.4    0.00 
 270   14:30   0.57   89.1    15    7.3   149    12.4   966.4    0.00 
 270   14:40   0.55   88.2    16    8.2   153    12.9   966.5    0.00 
 270   14:50   0.52   88.2    16    6.7   153    12.1   966.5    0.00 
 270   15:00   0.47   88.4    16    5.4   152    11.5   966.5    0.00 
 270   15:10   0.08   87.5    17    5.3   146    11.1   966.5    0.00 
 270   15:20   0.15   87.2    17    4.8   144    12.1   966.4    0.00 
 270   15:30   0.05   86.1    18    1.5   168     4.7   966.4    0.00 
 270   15:40   0.04   85.4    18    3.5   152     8.8   966.4    0.00 
 270   15:50   0.04   85.9    18    3.0   159     8.7   966.3    0.00 
 270   16:00   0.03   85.5    18    2.5   133     6.1   966.2    0.00 
 270   16:10   0.03   84.0    20    1.9   168     5.9   966.1    0.00 
 270   16:20   0.03   82.3    22    2.7   170     5.8   966.0    0.00 
 270   16:30   0.03   80.9    23    1.5   200     4.7   965.9    0.00 
 270   16:40   0.02   79.7    24    0.4   219     1.7   965.8    0.00 
 270   16:50   0.01   79.2    24    0.1   199     1.2   965.7    0.00 
 270   17:00   0.01   78.2    27    0.0     0     0.0   965.6    0.00 
 270   17:10   0.01   76.8    30    0.0     0     0.0   965.6    0.00 
 270   17:20   0.01   75.5    32    0.0     0     0.0   965.5    0.00 
 270   17:30   0.01   74.2    33    0.0     0     0.0   965.4    0.00 
 270   17:40   0.01   73.0    34    0.0     0     0.0   965.4    0.00 
 270   17:50   0.01   72.1    35    0.2   213     0.6   965.2    0.00 
 270   18:00   0.00   71.4    37    0.1   213     0.6   965.3    0.00 
 270   18:10   0.00   70.5    40    0.1   213     1.0   965.3    0.00 
 270   18:20   0.00   69.9    41    0.8   175     2.2   965.4    0.00 
 270   18:30   0.00   68.8    41    0.3   168     1.4   965.5    0.00 
 270   18:40   0.00   68.0    42    0.5   171     1.5   965.4    0.00 
 270   18:50   0.00   67.2    42    1.0   172     1.7   965.4    0.00 
 270   19:00   0.00   66.9    42    0.3   172     1.0   965.5    0.00 
 270   19:10   0.00   66.2    43    0.9   173     1.5   965.6    0.00 
 270   19:20   0.00   65.7    44    0.5   179     0.9   965.7    0.00 
 270   19:30   0.00   65.1    44    0.5   179     1.6   965.7    0.00 
 270   19:40   0.00   64.7    45    1.0   179     1.7   965.8    0.00 
 270   19:50   0.00   64.2    45    0.8   179     1.4   965.8    0.00 
 270   20:00   0.00   63.7    46    0.4   179     1.0   965.8    0.00 
 270   20:10   0.00   63.0    47    0.7   183     1.2   965.9    0.00 
 270   20:20   0.00   62.6    48    0.3   174     0.9   965.9    0.00 
 270   20:30   0.00   62.0    48    0.4   182     1.2   965.9    0.00 
 270   20:40   0.00   61.6    49    1.1   175     1.9   965.9    0.00 
 270   20:50   0.00   61.1    50    0.1   179     0.9   966.0    0.00 
 270   21:00   0.00   60.7    50    0.4   181     1.1   966.1    0.00 
 270   21:10   0.00   60.3    51    0.1   178     0.9   966.1    0.00 
 270   21:20   0.00   59.9    51    0.5   182     1.1   966.1    0.00 
 270   21:30   0.00   59.4    52    0.0   198     0.7   966.2    0.00 
 270   21:40   0.00   59.0    53    0.2   182     1.2   966.3    0.00 
 270   21:50   0.00   58.5    54    0.6   184     1.5   966.3    0.00 
 270   22:00   0.00   58.3    54    0.1   197     0.8   966.3    0.00 
 270   22:10   0.00   58.0    54    0.2   197     0.7   966.2    0.00 
 270   22:20   0.00   57.3    55    0.0     0     0.0   966.2    0.00 
 270   22:30   0.00   56.7    57    0.0     0     0.0   966.2    0.00 
 270   22:40   0.00   56.5    57    0.0   197     0.9   966.2    0.00 
 270   22:50   0.00   56.4    57    0.4   196     1.1   966.3    0.00 
 270   23:00   0.00   56.1    58    0.2   197     0.7   966.3    0.00 
 270   23:10   0.00   55.8    58    0.2   197     0.9   966.4    0.00 
 270   23:20   0.00   55.4    59    0.0     0     0.0   966.3    0.00 
 270   23:30   0.00   55.1    60    0.2   197     0.7   966.2    0.00 
 270   23:40   0.00   54.8    60    0.0     0     0.0   966.2    0.00 
 270   23:50   0.00   54.4    61    0.0     0     0.0   966.1    0.00 
 271    0:00   0.00   54.3    60    0.9   196     2.0   966.0    0.00 
 271    0:10   0.00   54.2    61    0.7   188     1.7   966.0    0.00 
 271    0:20   0.00   54.0    61    1.0   179     1.5   966.0    0.00 
 271    0:30   0.00   53.7    62    0.3   190     1.2   966.0    0.00 
 271    0:40   0.00   53.4    63    0.1   197     0.9   966.0    0.00 
 271    0:50   0.00   53.1    64    0.0     0     0.0   965.9    0.00 
 271    1:00   0.00   52.5    65    0.0     0     0.0   965.8    0.00 
 271    1:10   0.00   52.4    65    0.0     0     0.0   965.7    0.00 
 271    1:20   0.00   52.4    65    0.1   197     0.8   965.6    0.00 
 271    1:30   0.00   52.1    65    0.0   197     0.5   965.6    0.00 
 271    1:40   0.00   52.0    65    0.1   197     1.0   965.6    0.00 
 271    1:50   0.00   51.7    66    0.6   194     2.0   965.5    0.00 
 271    2:00   0.00   51.5    66    1.2   175     1.7   965.4    0.00 
 271    2:10   0.00   51.5    67    0.8   186     1.1   965.3    0.00 
 271    2:20   0.00   51.3    67    1.2   178     1.6   965.3    0.00 
 271    2:30   0.00   51.1    67    1.2   178     1.7   965.3    0.00 
 271    2:40   0.00   50.9    68    0.3   180     1.2   965.3    0.00 
 271    2:50   0.00   50.6    69    0.0     0     0.0   965.2    0.00 
 271    3:00   0.00   50.3    70    0.1   191     0.9   965.2    0.00 
 271    3:10   0.00   50.2    70    0.4   191     1.2   965.1    0.00 
 271    3:20   0.00   50.1    70    0.2   191     1.2   965.1    0.00 
 271    3:30   0.00   49.8    70    0.8   189     1.4   965.0    0.00 
 271    3:40   0.00   49.7    70    0.1   192     0.9   965.0    0.00 
 271    3:50   0.00   49.6    71    0.7   178     1.4   965.0    0.00 
 271    4:00   0.00   49.4    71    0.2   189     0.9   964.9    0.00 
 271    4:10   0.00   49.2    72    1.0   177     1.6   964.9    0.00 
 271    4:20   0.00   49.1    72    0.1   175     1.0   964.9    0.00 
 271    4:30   0.00   48.9    72    0.0     0     0.0   964.9    0.00 
 271    4:40   0.00   48.7    73    0.4   175     1.5   964.9    0.00 
 271    4:50   0.00   48.7    73    1.4   183     2.1   964.8    0.00 
 271    5:00   0.00   48.6    73    0.8   185     2.0   964.8    0.00 
 271    5:10   0.00   48.4    74    0.2   194     0.7   964.8    0.00 
 271    5:20   0.00   48.1    74    0.0     0     0.0   964.8    0.00 
 271    5:30   0.00   47.8    75    0.0     0     0.0   964.7    0.00 
 271    5:40   0.00   47.7    75    0.4   184     1.1   964.7    0.00 
 271    5:50   0.00   47.7    75    0.8   186     1.3   964.7    0.00 
 271    6:00   0.00   47.6    75    1.2   182     2.0   964.8    0.00 
 271    6:10   0.00   47.5    76    0.6   174     1.2   964.8    0.00 
 271    6:20   0.00   47.4    76    0.2   174     1.0   964.8    0.00 
 271    6:30   0.00   47.2    76    0.7   182     1.4   964.8    0.00 
 271    6:40   0.01   47.2    76    1.0   187     1.5   964.8    0.00 
 271    6:50   0.01   47.2    76    1.3   180     1.8   964.9    0.00 
 271    7:00   0.01   47.3    76    0.4   170     1.1   964.9    0.00 
 271    7:10   0.01   47.3    76    0.7   182     0.9   965.0    0.00 
 271    7:20   0.01   47.4    76    0.2   189     0.9   965.0    0.00 
 271    7:30   0.01   47.4    76    1.0   184     1.6   965.0    0.00 
 271    7:40   0.01   47.5    76    1.0   184     1.3   965.0    0.00 
 271    7:50   0.01   47.7    76    0.9   183     1.2   964.9    0.00 
 271    8:00   0.02   47.9    76    0.0     0     0.0   964.9    0.00 
 271    8:10   0.03   48.3    75    0.0     0     0.0   964.9    0.00 
 271    8:20   0.03   48.9    74    0.0     0     0.0   964.9    0.00 
 271    8:30   0.03   50.5    70    0.0     0     0.0   964.9    0.00 
 271    8:40   0.03   52.2    67    0.0     0     0.0   964.9    0.00 
 271    8:50   0.04   54.1    63    0.0     0     0.0   964.9    0.00 
 271    9:00   0.43   57.2    57    0.0   121     0.6   964.7    0.00 

Return to Angelo Coast Range Reserve graphs page.


Western Regional Climate Center,wrcc@dri.edu